sensor_id;sensor_type;location;lat;lon;timestamp;temperature;humidity
23452;DHT22;11898;51.130;6.780;2023-04-15T10:25:48;28.70;99.90
23452;DHT22;11898;51.130;6.780;2023-04-15T10:30:45;29.30;99.90
23452;DHT22;11898;51.130;6.780;2023-04-15T10:33:17;29.80;99.90
23452;DHT22;11898;51.130;6.780;2023-04-15T10:46:23;30.40;99.90
23452;DHT22;11898;51.130;6.780;2023-04-15T10:48:52;29.50;99.90
23452;DHT22;11898;51.130;6.780;2023-04-15T10:51:29;28.90;99.90
23452;DHT22;11898;51.130;6.780;2023-04-15T10:53:59;28.80;99.90
23452;DHT22;11898;51.130;6.780;2023-04-15T10:56:28;28.50;99.90
23452;DHT22;11898;51.130;6.780;2023-04-15T10:59:01;28.20;99.90
23452;DHT22;11898;51.130;6.780;2023-04-15T11:01:49;28.10;99.90
23452;DHT22;11898;51.130;6.780;2023-04-15T18:34:06;27.70;99.90
23452;DHT22;11898;51.130;6.780;2023-04-15T18:36:35;12.50;99.90
23452;DHT22;11898;51.130;6.780;2023-04-15T18:39:04;12.50;99.90
23452;DHT22;11898;51.130;6.780;2023-04-15T18:41:33;12.50;99.90
23452;DHT22;11898;51.130;6.780;2023-04-15T18:44:01;12.50;99.90
23452;DHT22;11898;51.130;6.780;2023-04-15T18:46:30;12.40;99.90
23452;DHT22;11898;51.130;6.780;2023-04-15T18:48:59;12.20;99.90
23452;DHT22;11898;51.130;6.780;2023-04-15T18:51:27;12.30;99.90
23452;DHT22;11898;51.130;6.780;2023-04-15T18:53:56;12.20;99.90
23452;DHT22;11898;51.130;6.780;2023-04-15T18:56:24;12.20;99.90
23452;DHT22;11898;51.130;6.780;2023-04-15T18:58:53;12.20;99.90
23452;DHT22;11898;51.130;6.780;2023-04-15T19:01:23;12.10;99.90
23452;DHT22;11898;51.130;6.780;2023-04-15T19:03:52;12.10;99.90
23452;DHT22;11898;51.130;6.780;2023-04-15T19:06:21;12.10;99.90
23452;DHT22;11898;51.130;6.780;2023-04-15T19:08:51;12.10;99.90
23452;DHT22;11898;51.130;6.780;2023-04-15T19:11:19;12.00;99.90
23452;DHT22;11898;51.130;6.780;2023-04-15T19:13:48;11.90;99.90
23452;DHT22;11898;51.130;6.780;2023-04-15T19:16:18;11.90;99.90
23452;DHT22;11898;51.130;6.780;2023-04-15T19:18:47;11.90;99.90
23452;DHT22;11898;51.130;6.780;2023-04-15T19:21:16;11.80;99.90
23452;DHT22;11898;51.130;6.780;2023-04-15T19:23:44;11.80;99.90
23452;DHT22;11898;51.130;6.780;2023-04-15T19:26:14;11.10;99.90
23452;DHT22;11898;51.130;6.780;2023-04-15T19:28:43;11.80;99.90
23452;DHT22;11898;51.130;6.780;2023-04-15T19:31:12;11.80;99.90
23452;DHT22;11898;51.130;6.780;2023-04-15T19:33:40;11.80;99.90
23452;DHT22;11898;51.130;6.780;2023-04-15T19:36:09;11.80;99.90
23452;DHT22;11898;51.130;6.780;2023-04-15T19:38:38;11.80;99.90
23452;DHT22;11898;51.130;6.780;2023-04-15T19:41:06;11.80;99.90
23452;DHT22;11898;51.130;6.780;2023-04-15T19:43:36;11.80;99.90
23452;DHT22;11898;51.130;6.780;2023-04-15T19:46:05;11.70;99.90
23452;DHT22;11898;51.130;6.780;2023-04-15T19:48:34;11.70;99.90
23452;DHT22;11898;51.130;6.780;2023-04-15T19:51:03;11.70;99.90
23452;DHT22;11898;51.130;6.780;2023-04-15T19:53:32;11.70;99.90
23452;DHT22;11898;51.130;6.780;2023-04-15T19:56:00;11.80;99.90
23452;DHT22;11898;51.130;6.780;2023-04-15T19:58:29;11.70;99.90
23452;DHT22;11898;51.130;6.780;2023-04-15T20:00:59;11.70;99.90
23452;DHT22;11898;51.130;6.780;2023-04-15T20:03:27;11.70;99.90
23452;DHT22;11898;51.130;6.780;2023-04-15T20:05:56;11.70;99.90
23452;DHT22;11898;51.130;6.780;2023-04-15T20:08:25;11.60;99.90
23452;DHT22;11898;51.130;6.780;2023-04-15T20:10:53;11.70;99.90
23452;DHT22;11898;51.130;6.780;2023-04-15T20:13:22;11.70;99.90
23452;DHT22;11898;51.130;6.780;2023-04-15T20:15:50;11.70;99.90
23452;DHT22;11898;51.130;6.780;2023-04-15T20:18:19;11.70;99.90
23452;DHT22;11898;51.130;6.780;2023-04-15T20:20:48;11.70;99.90
23452;DHT22;11898;51.130;6.780;2023-04-15T20:23:16;11.70;99.90
23452;DHT22;11898;51.130;6.780;2023-04-15T20:25:45;11.60;99.90
23452;DHT22;11898;51.130;6.780;2023-04-15T20:28:13;11.60;99.90
23452;DHT22;11898;51.130;6.780;2023-04-15T20:30:44;11.60;99.90
23452;DHT22;11898;51.130;6.780;2023-04-15T20:33:13;11.40;99.90
23452;DHT22;11898;51.130;6.780;2023-04-15T20:35:44;11.60;99.90
23452;DHT22;11898;51.130;6.780;2023-04-15T20:38:12;11.50;99.90
23452;DHT22;11898;51.130;6.780;2023-04-15T20:40:42;11.50;99.90
23452;DHT22;11898;51.130;6.780;2023-04-15T20:43:11;11.50;99.90
23452;DHT22;11898;51.130;6.780;2023-04-15T20:45:40;11.60;99.90
23452;DHT22;11898;51.130;6.780;2023-04-15T20:48:08;11.50;99.90
23452;DHT22;11898;51.130;6.780;2023-04-15T20:50:37;11.60;99.90
23452;DHT22;11898;51.130;6.780;2023-04-15T20:53:09;11.50;99.90
23452;DHT22;11898;51.130;6.780;2023-04-15T20:55:39;11.50;99.90
23452;DHT22;11898;51.130;6.780;2023-04-15T20:58:10;11.50;99.90
23452;DHT22;11898;51.130;6.780;2023-04-15T21:00:39;11.50;99.90
23452;DHT22;11898;51.130;6.780;2023-04-15T21:03:07;11.50;99.90
23452;DHT22;11898;51.130;6.780;2023-04-15T21:05:38;11.40;99.90
23452;DHT22;11898;51.130;6.780;2023-04-15T21:08:07;11.40;99.90
23452;DHT22;11898;51.130;6.780;2023-04-15T21:10:36;11.40;99.90
23452;DHT22;11898;51.130;6.780;2023-04-15T21:13:04;11.40;99.90
23452;DHT22;11898;51.130;6.780;2023-04-15T21:15:34;11.40;99.90
23452;DHT22;11898;51.130;6.780;2023-04-15T21:18:02;11.40;99.90
23452;DHT22;11898;51.130;6.780;2023-04-15T21:20:31;11.40;99.90
23452;DHT22;11898;51.130;6.780;2023-04-15T21:23:02;11.40;99.90
23452;DHT22;11898;51.130;6.780;2023-04-15T21:25:31;11.40;99.90
23452;DHT22;11898;51.130;6.780;2023-04-15T21:27:59;11.40;99.90
23452;DHT22;11898;51.130;6.780;2023-04-15T21:30:30;11.40;99.90
23452;DHT22;11898;51.130;6.780;2023-04-15T21:32:58;11.40;99.90
23452;DHT22;11898;51.130;6.780;2023-04-15T21:35:30;11.40;99.90
23452;DHT22;11898;51.130;6.780;2023-04-15T21:37:58;11.30;99.90
23452;DHT22;11898;51.130;6.780;2023-04-15T21:40:28;11.30;99.90
23452;DHT22;11898;51.130;6.780;2023-04-15T21:42:57;11.30;99.90
23452;DHT22;11898;51.130;6.780;2023-04-15T21:45:25;11.30;99.90
23452;DHT22;11898;51.130;6.780;2023-04-15T21:47:55;11.30;99.90
23452;DHT22;11898;51.130;6.780;2023-04-15T21:50:25;11.30;99.90
23452;DHT22;11898;51.130;6.780;2023-04-15T21:52:55;11.30;99.90
23452;DHT22;11898;51.130;6.780;2023-04-15T21:55:24;11.30;99.90
23452;DHT22;11898;51.130;6.780;2023-04-15T21:57:52;11.30;99.90
23452;DHT22;11898;51.130;6.780;2023-04-15T22:00:21;11.30;99.90
23452;DHT22;11898;51.130;6.780;2023-04-15T22:02:50;11.30;99.90
23452;DHT22;11898;51.130;6.780;2023-04-15T22:05:19;11.30;99.90
23452;DHT22;11898;51.130;6.780;2023-04-15T22:07:48;11.30;99.90
23452;DHT22;11898;51.130;6.780;2023-04-15T22:10:17;11.30;99.90
23452;DHT22;11898;51.130;6.780;2023-04-15T22:12:47;11.30;99.90
23452;DHT22;11898;51.130;6.780;2023-04-15T22:15:16;11.30;99.90
23452;DHT22;11898;51.130;6.780;2023-04-15T22:17:44;11.50;99.90
23452;DHT22;11898;51.130;6.780;2023-04-15T22:20:13;11.30;99.90
23452;DHT22;11898;51.130;6.780;2023-04-15T22:22:42;11.30;99.90
23452;DHT22;11898;51.130;6.780;2023-04-15T22:25:11;11.30;99.90
23452;DHT22;11898;51.130;6.780;2023-04-15T22:27:40;11.30;99.90
23452;DHT22;11898;51.130;6.780;2023-04-15T22:30:09;11.40;99.90
23452;DHT22;11898;51.130;6.780;2023-04-15T22:32:38;11.20;99.90
23452;DHT22;11898;51.130;6.780;2023-04-15T22:35:07;11.40;99.90
23452;DHT22;11898;51.130;6.780;2023-04-15T22:37:35;11.40;99.90
23452;DHT22;11898;51.130;6.780;2023-04-15T22:40:05;11.50;99.90
23452;DHT22;11898;51.130;6.780;2023-04-15T22:42:33;11.50;99.90
23452;DHT22;11898;51.130;6.780;2023-04-15T22:45:03;11.50;99.90
23452;DHT22;11898;51.130;6.780;2023-04-15T22:47:31;11.40;99.90
23452;DHT22;11898;51.130;6.780;2023-04-15T22:50:00;11.40;99.90
23452;DHT22;11898;51.130;6.780;2023-04-15T22:52:28;11.50;99.90
23452;DHT22;11898;51.130;6.780;2023-04-15T22:54:58;11.50;99.90
23452;DHT22;11898;51.130;6.780;2023-04-15T22:57:27;11.50;99.90
23452;DHT22;11898;51.130;6.780;2023-04-15T22:59:56;11.50;99.90
23452;DHT22;11898;51.130;6.780;2023-04-15T23:02:24;11.50;99.90
23452;DHT22;11898;51.130;6.780;2023-04-15T23:04:53;11.50;99.90
23452;DHT22;11898;51.130;6.780;2023-04-15T23:07:22;11.50;99.90
23452;DHT22;11898;51.130;6.780;2023-04-15T23:09:51;11.50;99.90
23452;DHT22;11898;51.130;6.780;2023-04-15T23:12:19;11.50;99.90
23452;DHT22;11898;51.130;6.780;2023-04-15T23:14:48;11.50;99.90
23452;DHT22;11898;51.130;6.780;2023-04-15T23:17:16;11.50;99.90
23452;DHT22;11898;51.130;6.780;2023-04-15T23:19:45;11.50;99.90
23452;DHT22;11898;51.130;6.780;2023-04-15T23:22:14;11.50;99.90
23452;DHT22;11898;51.130;6.780;2023-04-15T23:24:42;11.50;99.90
23452;DHT22;11898;51.130;6.780;2023-04-15T23:27:11;11.50;99.90
23452;DHT22;11898;51.130;6.780;2023-04-15T23:29:40;11.60;99.90
23452;DHT22;11898;51.130;6.780;2023-04-15T23:32:08;11.50;99.90
23452;DHT22;11898;51.130;6.780;2023-04-15T23:34:37;11.60;99.90
23452;DHT22;11898;51.130;6.780;2023-04-15T23:37:06;11.60;99.90
23452;DHT22;11898;51.130;6.780;2023-04-15T23:39:34;11.60;99.90
23452;DHT22;11898;51.130;6.780;2023-04-15T23:42:03;11.60;99.90
23452;DHT22;11898;51.130;6.780;2023-04-15T23:44:31;11.60;99.90
23452;DHT22;11898;51.130;6.780;2023-04-15T23:47:00;11.60;99.90
23452;DHT22;11898;51.130;6.780;2023-04-15T23:49:29;11.60;99.90
23452;DHT22;11898;51.130;6.780;2023-04-15T23:51:58;11.60;99.90
23452;DHT22;11898;51.130;6.780;2023-04-15T23:54:26;11.60;99.90
23452;DHT22;11898;51.130;6.780;2023-04-15T23:56:55;11.60;99.90
23452;DHT22;11898;51.130;6.780;2023-04-15T23:59:23;11.60;99.90
